Time;durP1;ratioP1;P1;durP2;ratioP2;P2;SDS_P1;SDS_P2;PMS_P1;PMS_P2;Temp;Humidity;BMP_temperature;BMP_pressure;BME280_temperature;BME280_humidity;BME280_pressure;Samples;Min_cycle;Max_cycle;Signal;HPM_P1;HPM_P2
2023/05/14 00:01:02;;;;;;;5.68;5.18;;;;;13.30;98641.00;;;;5051444;28;20049;-67
2023/05/14 00:03:29;;;;;;;6.80;6.10;;;;;13.30;98646.00;;;;5052442;28;20049;-67
2023/05/14 00:05:56;;;;;;;8.35;5.82;;;;;13.20;98640.00;;;;5052474;28;20065;-67
2023/05/14 00:08:23;;;;;;;8.88;5.82;;;;;13.10;98644.00;;;;5050787;28;20379;-67
2023/05/14 00:10:49;;;;;;;6.32;5.72;;;;;13.00;98637.00;;;;5052134;28;20441;-67
2023/05/14 00:13:16;;;;;;;6.18;4.93;;;;;12.90;98642.00;;;;5052175;28;20076;-67
2023/05/14 00:15:43;;;;;;;8.60;6.30;;;;;13.00;98643.00;;;;5034736;28;20049;-67
2023/05/14 00:18:11;;;;;;;8.63;5.53;;;;;12.90;98638.00;;;;5052940;28;20116;-67
2023/05/14 00:20:37;;;;;;;9.35;6.60;;;;;12.80;98641.00;;;;5052027;28;20456;-67
2023/05/14 00:23:04;;;;;;;8.40;5.38;;;;;12.80;98635.00;;;;5052158;28;20041;-68
2023/05/14 00:25:30;;;;;;;6.03;5.30;;;;;12.80;98639.00;;;;5054367;28;20044;-67
2023/05/14 00:27:57;;;;;;;8.98;5.95;;;;;12.80;98627.00;;;;5056046;28;20072;-67
2023/05/14 00:30:23;;;;;;;7.30;5.57;;;;;12.80;98632.00;;;;5054576;28;20045;-67
2023/05/14 00:32:52;;;;;;;6.03;5.43;;;;;12.90;98632.00;;;;5054945;28;20083;-67
2023/05/14 00:35:20;;;;;;;6.88;5.47;;;;;12.80;98635.00;;;;5054786;28;20465;-68
2023/05/14 00:37:47;;;;;;;6.70;6.00;;;;;12.70;98626.00;;;;5055780;28;20037;-68
2023/05/14 00:40:13;;;;;;;9.00;6.13;;;;;12.50;98619.00;;;;5054637;28;20049;-67
2023/05/14 00:42:40;;;;;;;6.07;5.47;;;;;12.50;98623.00;;;;5055056;28;20099;-67
2023/05/14 00:45:07;;;;;;;6.35;5.32;;;;;12.50;98620.00;;;;5054482;28;20048;-67
2023/05/14 00:47:34;;;;;;;6.32;5.72;;;;;12.50;98622.00;;;;5054341;28;20421;-67
2023/05/14 00:50:02;;;;;;;6.95;5.70;;;;;12.50;98624.00;;;;5055440;28;20037;-67
2023/05/14 00:52:29;;;;;;;6.95;6.05;;;;;12.40;98619.00;;;;5055587;28;20079;-67
2023/05/14 00:54:56;;;;;;;7.38;5.95;;;;;12.40;98619.00;;;;5054175;28;20049;-67
2023/05/14 00:57:22;;;;;;;9.10;5.63;;;;;12.40;98629.00;;;;5037815;28;20395;-67
2023/05/14 00:59:49;;;;;;;6.47;5.43;;;;;12.40;98620.00;;;;5054145;28;20051;-67
2023/05/14 01:02:16;;;;;;;9.23;5.93;;;;;12.40;98633.00;;;;5054511;28;20090;-67
2023/05/14 01:04:42;;;;;;;6.55;5.95;;;;;12.40;98614.00;;;;5053745;28;20658;-67
2023/05/14 01:07:51;;;;;;;7.13;5.30;;;;;12.50;98623.00;;;;5055336;28;20067;-67
2023/05/14 01:10:33;;;;;;;8.43;6.38;;;;;12.30;98620.00;;;;5053839;28;20429;-68
2023/05/14 01:13:13;;;;;;;7.30;5.72;;;;;12.20;98619.00;;;;5053684;28;20415;-67
2023/05/14 01:15:41;;;;;;;6.00;5.40;;;;;12.20;98616.00;;;;5053926;28;20418;-68
2023/05/14 01:18:15;;;;;;;8.00;5.78;;;;;12.30;98615.00;;;;5055062;28;20033;-68
2023/05/14 01:20:43;;;;;;;10.00;5.70;;;;;12.10;98617.00;;;;5053229;28;20056;-67
2023/05/14 01:23:10;;;;;;;6.13;5.28;;;;;12.00;98614.00;;;;5053701;28;20501;-67
2023/05/14 01:25:36;;;;;;;7.47;5.50;;;;;12.00;98609.00;;;;5038003;28;20122;-68
2023/05/14 01:28:23;;;;;;;7.38;6.28;;;;;12.00;98609.00;;;;5054756;28;20087;-68
2023/05/14 01:31:08;;;;;;;6.18;5.57;;;;;11.90;98609.00;;;;5037020;28;20055;-68
2023/05/14 01:33:36;;;;;;;5.95;5.38;;;;;12.00;98606.00;;;;5053645;28;20488;-68
2023/05/14 01:36:03;;;;;;;5.55;4.97;;;;;11.90;98606.00;;;;5053690;28;20548;-68
2023/05/14 01:38:32;;;;;;;5.40;4.90;;;;;11.80;98601.00;;;;5055158;28;20079;-68
2023/05/14 01:41:00;;;;;;;6.45;5.10;;;;;11.80;98591.00;;;;5053334;28;20048;-68
2023/05/14 01:43:27;;;;;;;6.18;4.78;;;;;11.90;98605.00;;;;5053458;28;20048;-68
2023/05/14 01:45:54;;;;;;;6.18;5.57;;;;;11.90;98599.00;;;;5053686;28;20053;-67
2023/05/14 01:48:21;;;;;;;6.35;5.75;;;;;11.80;98601.00;;;;5053311;28;20049;-68
2023/05/14 01:50:47;;;;;;;8.25;5.07;;;;;11.80;98602.00;;;;5054032;28;20098;-67
2023/05/14 01:53:14;;;;;;;8.00;5.18;;;;;11.80;98603.00;;;;5054748;28;20045;-68
2023/05/14 01:55:41;;;;;;;9.63;5.60;;;;;11.80;98611.00;;;;5052933;28;20045;-68
2023/05/14 01:58:08;;;;;;;10.68;6.07;;;;;11.70;98603.00;;;;5036568;28;20045;-68
2023/05/14 02:00:34;;;;;;;8.50;5.40;;;;;11.60;98595.00;;;;5052979;28;20107;-68
2023/05/14 02:03:01;;;;;;;7.72;5.60;;;;;11.60;98599.00;;;;5053355;28;20387;-68
2023/05/14 02:05:27;;;;;;;6.32;5.18;;;;;11.50;98600.00;;;;5054391;28;20520;-67
2023/05/14 02:07:54;;;;;;;6.25;5.03;;;;;11.40;98598.00;;;;5036523;28;20041;-68
2023/05/14 02:10:21;;;;;;;6.72;5.35;;;;;11.50;98592.00;;;;5052870;28;20052;-68
2023/05/14 02:12:48;;;;;;;9.32;5.38;;;;;11.60;98593.00;;;;5052757;28;20102;-68
2023/05/14 02:15:15;;;;;;;7.18;5.20;;;;;11.60;98596.00;;;;5052513;28;20132;-68
2023/05/14 02:17:41;;;;;;;5.60;5.03;;;;;11.70;98592.00;;;;5036035;28;20049;-68
2023/05/14 02:20:10;;;;;;;5.25;4.72;;;;;11.70;98580.00;;;;5052702;28;20083;-68
2023/05/14 02:22:36;;;;;;;6.38;4.63;;;;;11.60;98592.00;;;;5053261;28;20052;-68
2023/05/14 02:25:03;;;;;;;5.80;4.68;;;;;11.50;98590.00;;;;5052718;28;20045;-68
2023/05/14 02:27:30;;;;;;;6.05;5.07;;;;;11.40;98588.00;;;;5053990;28;20090;-68
2023/05/14 02:29:59;;;;;;;8.90;5.25;;;;;11.40;98576.00;;;;5051963;28;20049;-68
2023/05/14 02:32:27;;;;;;;5.40;4.90;;;;;11.30;98578.00;;;;5052719;28;20072;-68
2023/05/14 02:34:54;;;;;;;5.82;5.05;;;;;11.20;98583.00;;;;5053345;28;20045;-68
2023/05/14 02:37:20;;;;;;;8.13;4.53;;;;;11.10;98573.00;;;;5053516;28;20167;-68
2023/05/14 02:39:47;;;;;;;4.95;4.45;;;;;11.00;98573.00;;;;5036695;28;20041;-67
2023/05/14 02:42:14;;;;;;;5.38;4.88;;;;;11.00;98578.00;;;;5054496;28;20045;-68
2023/05/14 02:44:41;;;;;;;7.57;5.03;;;;;11.00;98580.00;;;;5053232;28;20452;-68
2023/05/14 02:47:07;;;;;;;5.40;4.80;;;;;11.00;98577.00;;;;5052628;28;20045;-67
2023/05/14 02:49:34;;;;;;;6.97;5.30;;;;;11.00;98580.00;;;;5052994;28;20095;-67
2023/05/14 02:52:00;;;;;;;8.80;5.70;;;;;10.90;98574.00;;;;5036499;28;20068;-68
2023/05/14 02:54:27;;;;;;;7.72;5.28;;;;;10.90;98563.00;;;;5052653;28;20072;-68
2023/05/14 02:56:53;;;;;;;7.35;4.68;;;;;10.90;98569.00;;;;5036044;28;20449;-68
2023/05/14 02:59:22;;;;;;;5.43;4.85;;;;;10.90;98563.00;;;;5052194;28;20056;-67
2023/05/14 03:01:49;;;;;;;5.63;4.97;;;;;10.90;98563.00;;;;5052373;28;20605;-68
2023/05/14 03:04:16;;;;;;;14.80;4.78;;;;;10.90;98564.00;;;;5051999;28;20509;-68
2023/05/14 03:06:43;;;;;;;7.65;4.80;;;;;10.90;98562.00;;;;5052259;28;20044;-68
2023/05/14 03:09:09;;;;;;;5.47;4.93;;;;;10.80;98550.00;;;;5053389;28;20037;-68
2023/05/14 03:11:36;;;;;;;5.68;4.82;;;;;10.80;98559.00;;;;5051843;28;20576;-67
2023/05/14 03:14:02;;;;;;;6.03;4.78;;;;;10.80;98554.00;;;;5051683;28;20045;-68
2023/05/14 03:16:29;;;;;;;8.18;4.72;;;;;10.80;98564.00;;;;5052227;28;20045;-68
2023/05/14 03:18:55;;;;;;;4.82;4.35;;;;;10.80;98548.00;;;;5053802;28;20041;-68
2023/05/14 03:21:22;;;;;;;3.88;3.58;;;;;10.70;98559.00;;;;5036488;28;20418;-68
2023/05/14 03:23:49;;;;;;;9.43;4.57;;;;;10.70;98563.00;;;;5056630;28;20059;-68
2023/05/14 03:26:17;;;;;;;9.00;5.18;;;;;10.60;98559.00;;;;5071776;28;20045;-67
2023/05/14 03:28:43;;;;;;;7.03;5.13;;;;;10.50;98559.00;;;;5073674;28;20053;-67
2023/05/14 03:31:11;;;;;;;6.47;4.70;;;;;10.50;98555.00;;;;5055951;28;20047;-68
2023/05/14 03:33:38;;;;;;;7.18;4.88;;;;;10.50;98559.00;;;;5054703;28;20074;-66
2023/05/14 03:36:05;;;;;;;6.32;5.53;;;;;10.60;98567.00;;;;5035207;28;20143;-67
2023/05/14 03:38:31;;;;;;;7.35;5.78;;;;;10.60;98569.00;;;;5051820;28;20041;-67
2023/05/14 03:40:58;;;;;;;7.20;5.45;;;;;10.60;98566.00;;;;5051534;28;20044;-67
2023/05/14 03:43:24;;;;;;;7.88;6.60;;;;;10.60;98566.00;;;;5035051;28;20052;-67
2023/05/14 03:45:51;;;;;;;8.88;6.25;;;;;10.60;98560.00;;;;5052946;28;20120;-67
2023/05/14 03:48:18;;;;;;;10.32;6.47;;;;;10.60;98563.00;;;;5051380;28;20509;-69
2023/05/14 03:50:45;;;;;;;7.93;5.30;;;;;10.60;98560.00;;;;5056024;28;20037;-67
2023/05/14 03:53:12;;;;;;;8.98;5.97;;;;;10.60;98555.00;;;;5055303;28;20494;-67
2023/05/14 03:55:39;;;;;;;7.15;6.20;;;;;10.50;98566.00;;;;5035257;28;20041;-67
2023/05/14 03:58:12;;;;;;;12.13;6.68;;;;;10.30;98564.00;;;;5057790;28;20072;-67
2023/05/14 04:00:42;;;;;;;19.17;6.65;;;;;10.30;98565.00;;;;5059110;28;20377;-68
2023/05/14 04:03:10;;;;;;;11.13;6.70;;;;;10.20;98559.00;;;;5053565;28;20532;-67
2023/05/14 04:05:37;;;;;;;9.48;6.78;;;;;10.30;98558.00;;;;5058551;28;20076;-67
2023/05/14 04:08:03;;;;;;;9.55;7.47;;;;;10.30;98555.00;;;;5057376;28;20056;-67
2023/05/14 04:10:31;;;;;;;9.05;6.40;;;;;10.40;98551.00;;;;5057747;28;20106;-67
2023/05/14 04:12:58;;;;;;;7.05;6.35;;;;;10.40;98560.00;;;;5043454;28;20048;-67
2023/05/14 04:15:30;;;;;;;6.60;5.82;;;;;10.50;98556.00;;;;5059160;28;20462;-67
2023/05/14 04:17:57;;;;;;;7.72;5.90;;;;;10.60;98553.00;;;;5050907;28;20151;-67
2023/05/14 04:20:23;;;;;;;7.07;5.47;;;;;10.60;98545.00;;;;5050653;28;20041;-68
2023/05/14 04:22:50;;;;;;;9.05;5.82;;;;;10.60;98554.00;;;;5052127;28;20490;-68
2023/05/14 04:25:17;;;;;;;6.68;5.28;;;;;10.60;98551.00;;;;5050842;28;20049;-68
2023/05/14 04:27:43;;;;;;;6.85;5.60;;;;;10.50;98554.00;;;;5051833;28;20040;-68
2023/05/14 04:30:10;;;;;;;6.07;5.47;;;;;10.60;98545.00;;;;5051602;28;20544;-67
2023/05/14 04:32:38;;;;;;;5.68;5.13;;;;;10.60;98554.00;;;;5050738;28;20049;-68
2023/05/14 04:35:05;;;;;;;7.15;5.82;;;;;10.50;98554.00;;;;5052051;28;20041;-68
2023/05/14 04:37:32;;;;;;;8.40;5.03;;;;;10.60;98558.00;;;;5052351;28;20041;-68
2023/05/14 04:39:58;;;;;;;5.20;4.70;;;;;10.60;98558.00;;;;5050770;28;20433;-68
2023/05/14 04:42:25;;;;;;;7.63;5.70;;;;;10.80;98552.00;;;;5052178;28;20075;-68
2023/05/14 04:44:51;;;;;;;5.68;5.18;;;;;11.00;98552.00;;;;5050554;28;20045;-67
2023/05/14 04:47:19;;;;;;;6.63;5.50;;;;;11.10;98563.00;;;;5051786;28;20049;-68
2023/05/14 04:49:46;;;;;;;6.40;5.00;;;;;11.30;98563.00;;;;5033770;28;20041;-68
2023/05/14 04:52:13;;;;;;;7.10;5.32;;;;;11.40;98567.00;;;;5050690;28;20041;-68
2023/05/14 04:54:39;;;;;;;6.65;4.63;;;;;11.40;98558.00;;;;5051868;28;20041;-68
2023/05/14 04:57:06;;;;;;;6.65;5.97;;;;;11.50;98560.00;;;;5052541;28;20083;-67
2023/05/14 04:59:32;;;;;;;9.88;6.70;;;;;11.50;98558.00;;;;5051734;28;20068;-67
2023/05/14 05:01:59;;;;;;;6.97;5.75;;;;;11.50;98568.00;;;;5050398;28;20121;-67
2023/05/14 05:04:26;;;;;;;6.72;5.15;;;;;11.60;98568.00;;;;5050563;28;20060;-67
2023/05/14 05:06:53;;;;;;;5.30;4.80;;;;;11.70;98569.00;;;;5050383;28;20412;-67
2023/05/14 05:09:19;;;;;;;7.22;5.28;;;;;11.70;98560.00;;;;5050137;28;20060;-67
2023/05/14 05:11:46;;;;;;;6.88;5.38;;;;;11.80;98562.00;;;;5055492;28;20052;-67
2023/05/14 05:14:12;;;;;;;10.65;6.32;;;;;11.80;98574.00;;;;5054160;28;20044;-67
2023/05/14 05:16:39;;;;;;;11.13;7.68;;;;;11.90;98572.00;;;;5055072;28;20049;-67
2023/05/14 05:19:06;;;;;;;7.70;5.57;;;;;12.00;98568.00;;;;5053614;28;20049;-67
2023/05/14 05:21:33;;;;;;;7.63;5.70;;;;;11.90;98568.00;;;;5053132;28;20136;-67
2023/05/14 05:23:59;;;;;;;7.65;5.80;;;;;11.70;98566.00;;;;5054740;28;20060;-67
2023/05/14 05:26:26;;;;;;;12.35;8.98;;;;;11.70;98567.00;;;;5037248;28;20049;-67
2023/05/14 05:28:53;;;;;;;8.30;6.68;;;;;11.90;98564.00;;;;5054638;28;20494;-67
2023/05/14 05:31:19;;;;;;;6.07;5.47;;;;;12.10;98570.00;;;;5055047;28;20063;-67
2023/05/14 05:33:46;;;;;;;6.38;5.32;;;;;12.10;98571.00;;;;5054727;28;20052;-67
2023/05/14 05:36:13;;;;;;;6.13;5.18;;;;;12.00;98574.00;;;;5054401;28;20041;-68
2023/05/14 05:38:39;;;;;;;8.10;4.57;;;;;12.00;98565.00;;;;5053986;28;20053;-68
2023/05/14 05:41:06;;;;;;;6.78;4.65;;;;;12.10;98554.00;;;;5053706;28;20651;-67
2023/05/14 05:43:33;;;;;;;6.15;5.07;;;;;12.10;98568.00;;;;5054812;28;20044;-67
2023/05/14 05:46:00;;;;;;;5.30;4.75;;;;;12.00;98566.00;;;;5036871;28;20425;-67
2023/05/14 05:48:27;;;;;;;5.38;4.63;;;;;12.00;98571.00;;;;5055007;28;20562;-67
2023/05/14 05:50:54;;;;;;;7.13;4.70;;;;;12.20;98576.00;;;;5053525;28;20072;-67
2023/05/14 05:53:20;;;;;;;5.50;4.65;;;;;12.30;98577.00;;;;5053448;28;20044;-66
2023/05/14 05:55:47;;;;;;;5.43;4.45;;;;;12.40;98575.00;;;;5053351;28;20045;-66
2023/05/14 05:58:15;;;;;;;5.10;4.60;;;;;12.30;98568.00;;;;5053212;28;20044;-68
2023/05/14 06:00:42;;;;;;;7.32;4.97;;;;;12.50;98570.00;;;;5054482;28;20044;-67
2023/05/14 06:03:10;;;;;;;8.23;5.45;;;;;12.70;98576.00;;;;5053236;28;20055;-67
2023/05/14 06:05:36;;;;;;;6.97;4.93;;;;;12.70;98578.00;;;;5055697;28;20033;-67
2023/05/14 06:08:03;;;;;;;6.00;4.95;;;;;12.70;98575.00;;;;5053859;28;20048;-66
2023/05/14 06:10:30;;;;;;;5.60;4.82;;;;;12.90;98576.00;;;;5054395;28;20037;-67
2023/05/14 06:12:57;;;;;;;6.45;5.90;;;;;13.00;98578.00;;;;5053412;28;20045;-67
2023/05/14 06:15:23;;;;;;;5.80;5.20;;;;;13.10;98580.00;;;;5053566;28;20494;-67
2023/05/14 06:17:50;;;;;;;6.35;5.35;;;;;13.30;98584.00;;;;5055124;28;20045;-67
2023/05/14 06:20:16;;;;;;;7.25;6.53;;;;;13.50;98575.00;;;;5054821;28;20119;-67
2023/05/14 06:22:43;;;;;;;8.30;5.93;;;;;13.50;98580.00;;;;5052573;28;20513;-67
2023/05/14 06:25:10;;;;;;;8.52;5.63;;;;;13.40;98574.00;;;;5052838;28;20079;-68
2023/05/14 06:27:36;;;;;;;9.15;5.55;;;;;13.70;98586.00;;;;5052952;28;20548;-69
2023/05/14 06:30:03;;;;;;;6.05;5.30;;;;;13.70;98586.00;;;;5053699;28;20041;-66
2023/05/14 06:32:30;;;;;;;6.15;4.97;;;;;13.90;98583.00;;;;5054504;28;20037;-67
2023/05/14 06:34:57;;;;;;;6.90;6.13;;;;;14.00;98583.00;;;;5053966;28;20052;-67
2023/05/14 06:37:23;;;;;;;6.68;5.63;;;;;14.10;98580.00;;;;5036761;28;20060;-67
2023/05/14 06:39:50;;;;;;;13.00;5.20;;;;;14.20;98572.00;;;;5054058;28;20087;-67
2023/05/14 06:42:17;;;;;;;5.70;5.20;;;;;14.20;98580.00;;;;5053970;28;20045;-67
2023/05/14 06:44:44;;;;;;;6.05;5.25;;;;;14.50;98581.00;;;;5053674;28;20049;-70
2023/05/14 06:47:10;;;;;;;7.78;5.55;;;;;14.70;98584.00;;;;5054045;28;20048;-67
2023/05/14 06:49:38;;;;;;;5.78;5.28;;;;;14.80;98579.00;;;;5053502;28;20041;-67
2023/05/14 06:52:05;;;;;;;6.10;5.50;;;;;14.90;98584.00;;;;5052907;28;20498;-67
2023/05/14 06:54:31;;;;;;;6.22;5.60;;;;;15.00;98576.00;;;;5052674;28;20069;-67
2023/05/14 06:56:58;;;;;;;7.95;6.55;;;;;15.20;98578.00;;;;5052817;28;20048;-68
2023/05/14 06:59:25;;;;;;;7.10;6.40;;;;;15.10;98580.00;;;;5053710;28;20048;-69
2023/05/14 07:01:51;;;;;;;7.45;6.28;;;;;15.10;98580.00;;;;5052564;28;20045;-68
2023/05/14 07:04:18;;;;;;;7.15;6.50;;;;;15.10;98578.00;;;;5053788;28;20131;-68
2023/05/14 07:06:45;;;;;;;7.45;6.75;;;;;15.00;98575.00;;;;5052445;28;20071;-68
2023/05/14 07:09:12;;;;;;;8.10;6.57;;;;;15.00;98580.00;;;;5052160;28;20052;-68
2023/05/14 07:11:38;;;;;;;11.02;6.63;;;;;15.20;98585.00;;;;5053646;28;20056;-66
2023/05/14 07:14:05;;;;;;;8.48;6.43;;;;;15.30;98578.00;;;;5053430;28;20041;-66
2023/05/14 07:16:31;;;;;;;7.00;6.30;;;;;15.40;98569.00;;;;5055472;28;20049;-67
2023/05/14 07:18:58;;;;;;;7.28;6.57;;;;;15.40;98571.00;;;;5054316;28;20045;-67
2023/05/14 07:21:25;;;;;;;7.05;6.35;;;;;15.50;98575.00;;;;5062943;28;20052;-67
2023/05/14 07:23:51;;;;;;;7.85;6.72;;;;;15.50;98575.00;;;;5070770;28;20037;-67
2023/05/14 07:26:18;;;;;;;7.50;6.80;;;;;15.50;98569.00;;;;5060508;28;20071;-67
2023/05/14 07:28:44;;;;;;;7.13;6.22;;;;;15.50;98569.00;;;;5057430;28;20069;-68
2023/05/14 07:31:11;;;;;;;9.82;7.20;;;;;15.50;98567.00;;;;5056041;28;20072;-68
2023/05/14 07:33:38;;;;;;;8.63;6.68;;;;;15.70;98564.00;;;;5054223;28;20041;-66
2023/05/14 07:36:05;;;;;;;9.35;6.53;;;;;16.00;98566.00;;;;5054079;28;20041;-68
2023/05/14 07:38:31;;;;;;;8.82;5.63;;;;;16.20;98569.00;;;;5053265;28;20053;-66
2023/05/14 07:40:58;;;;;;;7.30;6.53;;;;;16.40;98565.00;;;;5053527;28;20413;-65
2023/05/14 07:43:25;;;;;;;8.77;7.30;;;;;16.50;98563.00;;;;5051615;28;20069;-66
2023/05/14 07:45:51;;;;;;;15.57;7.53;;;;;16.70;98565.00;;;;5052985;28;20049;-65
2023/05/14 07:48:18;;;;;;;8.45;6.50;;;;;16.70;98563.00;;;;5051608;28;20640;-65
2023/05/14 07:50:44;;;;;;;7.57;6.00;;;;;16.70;98557.00;;;;5052766;28;20037;-65
2023/05/14 07:53:11;;;;;;;6.00;5.40;;;;;16.70;98550.00;;;;5052439;28;20060;-65
2023/05/14 07:55:38;;;;;;;6.40;5.75;;;;;16.80;98546.00;;;;5052889;28;20106;-66
2023/05/14 07:58:05;;;;;;;7.22;5.70;;;;;17.00;98541.00;;;;5051228;28;20049;-65
2023/05/14 08:00:32;;;;;;;6.10;5.53;;;;;16.90;98537.00;;;;5051283;28;20490;-66
2023/05/14 08:02:58;;;;;;;6.05;5.40;;;;;17.00;98547.00;;;;5035067;28;20132;-66
2023/05/14 08:05:25;;;;;;;5.97;5.38;;;;;17.10;98543.00;;;;5051630;28;20052;-66
2023/05/14 08:07:52;;;;;;;5.38;4.88;;;;;17.10;98545.00;;;;5053425;28;20049;-66
2023/05/14 08:10:18;;;;;;;5.72;5.13;;;;;17.20;98546.00;;;;5052491;28;20522;-66
2023/05/14 08:12:45;;;;;;;5.30;4.55;;;;;17.40;98541.00;;;;5053493;28;20049;-66
2023/05/14 08:15:11;;;;;;;6.45;4.55;;;;;17.70;98535.00;;;;5055181;28;20053;-68
2023/05/14 08:17:38;;;;;;;4.72;4.32;;;;;17.70;98543.00;;;;5056107;28;20041;-66
2023/05/14 08:20:06;;;;;;;4.40;4.00;;;;;17.80;98539.00;;;;5054878;28;20552;-68
2023/05/14 08:22:32;;;;;;;5.07;4.18;;;;;18.00;98537.00;;;;5053681;28;20064;-67
2023/05/14 08:25:01;;;;;;;4.30;3.65;;;;;17.90;98540.00;;;;5056162;28;20072;-68
2023/05/14 08:27:28;;;;;;;4.82;4.28;;;;;17.90;98544.00;;;;5055505;28;20563;-70
2023/05/14 08:29:54;;;;;;;3.92;3.53;;;;;17.90;98543.00;;;;5063627;28;20494;-70
2023/05/14 08:32:21;;;;;;;3.58;3.25;;;;;17.80;98531.00;;;;5064437;28;20075;-69
2023/05/14 08:34:50;;;;;;;4.25;3.85;;;;;17.70;98531.00;;;;5059852;28;20884;-69
2023/05/14 08:37:17;;;;;;;4.45;3.70;;;;;17.80;98527.00;;;;5059000;28;20045;-69
2023/05/14 08:39:43;;;;;;;4.40;3.97;;;;;17.80;98527.00;;;;5061222;28;20045;-69
2023/05/14 08:42:12;;;;;;;3.60;3.30;;;;;17.90;98523.00;;;;5063158;28;20103;-69
2023/05/14 08:44:48;;;;;;;4.68;3.63;;;;;18.20;98535.00;;;;5065886;28;20041;-67
2023/05/14 08:47:17;;;;;;;5.40;4.88;;;;;18.10;98519.00;;;;5068327;28;20055;-67
2023/05/14 08:49:46;;;;;;;3.60;3.30;;;;;18.30;98520.00;;;;5067354;28;20060;-67
2023/05/14 08:52:16;;;;;;;4.05;3.33;;;;;18.50;98517.00;;;;5052844;28;20053;-68
2023/05/14 08:54:44;;;;;;;5.10;3.80;;;;;18.70;98513.00;;;;5069007;28;20048;-67
2023/05/14 08:57:11;;;;;;;5.90;4.05;;;;;19.10;98516.00;;;;5051979;28;20057;-67
2023/05/14 08:59:38;;;;;;;5.05;3.80;;;;;19.00;98507.00;;;;5069483;28;20049;-68
2023/05/14 09:02:05;;;;;;;3.50;3.20;;;;;19.10;98512.00;;;;5072128;28;20033;-67
2023/05/14 09:04:33;;;;;;;5.60;3.25;;;;;19.00;98502.00;;;;5074591;28;20053;-67
2023/05/14 09:07:01;;;;;;;4.07;3.30;;;;;18.90;98500.00;;;;5073703;28;20112;-67
2023/05/14 09:09:27;;;;;;;4.32;3.38;;;;;18.80;98510.00;;;;5070558;28;20056;-67
2023/05/14 09:11:54;;;;;;;3.63;3.33;;;;;18.80;98510.00;;;;5073367;28;20044;-67
2023/05/14 09:14:22;;;;;;;5.32;3.67;;;;;18.90;98495.00;;;;5074714;28;20052;-67
2023/05/14 09:16:49;;;;;;;3.65;3.00;;;;;19.10;98492.00;;;;5073984;28;20136;-69
2023/05/14 09:19:19;;;;;;;5.90;3.05;;;;;19.40;98496.00;;;;5071403;28;20059;-66
2023/05/14 09:21:47;;;;;;;2.60;2.40;;;;;19.50;98498.00;;;;5058926;28;20048;-67
2023/05/14 09:24:22;;;;;;;3.00;2.80;;;;;19.50;98501.00;;;;5056367;28;20383;-68
2023/05/14 09:26:53;;;;;;;5.40;3.30;;;;;19.40;98499.00;;;;5056503;28;20148;-67
2023/05/14 09:29:21;;;;;;;2.70;2.50;;;;;19.30;98497.00;;;;5038170;28;20069;-69
2023/05/14 09:31:50;;;;;;;3.70;3.30;;;;;19.30;98485.00;;;;5054073;28;20049;-67
2023/05/14 09:34:31;;;;;;;3.20;2.90;;;;;19.30;98497.00;;;;5053680;28;20044;-65
2023/05/14 09:37:02;;;;;;;3.47;3.17;;;;;19.30;98487.00;;;;5037170;28;20044;-65
2023/05/14 09:39:30;;;;;;;3.22;2.60;;;;;19.30;98495.00;;;;5054636;28;20048;-65
2023/05/14 09:41:56;;;;;;;3.13;2.83;;;;;19.30;98486.00;;;;5053953;28;20040;-65
2023/05/14 09:44:24;;;;;;;2.85;2.65;;;;;19.40;98500.00;;;;5061426;28;20069;-66
2023/05/14 09:46:51;;;;;;;2.75;2.53;;;;;19.40;98507.00;;;;5054910;28;20506;-66
2023/05/14 09:49:19;;;;;;;3.55;2.80;;;;;19.40;98499.00;;;;5053442;28;20053;-66
2023/05/14 09:51:47;;;;;;;2.90;2.70;;;;;19.30;98506.00;;;;5053759;28;20086;-67
2023/05/14 09:54:13;;;;;;;4.10;2.97;;;;;19.30;98501.00;;;;5053620;28;20049;-66
2023/05/14 09:56:40;;;;;;;3.20;2.83;;;;;19.20;98504.00;;;;5051945;28;20695;-66
2023/05/14 09:59:06;;;;;;;3.08;2.72;;;;;19.10;98501.00;;;;5054811;28;20049;-65
2023/05/14 10:01:33;;;;;;;4.30;2.78;;;;;19.10;98498.00;;;;5054403;28;20048;-65
2023/05/14 10:04:03;;;;;;;3.60;3.30;;;;;19.00;98506.00;;;;5054956;28;20045;-65
2023/05/14 10:06:32;;;;;;;3.13;2.83;;;;;18.80;98505.00;;;;5054844;28;20162;-65
2023/05/14 10:09:03;;;;;;;3.17;2.92;;;;;18.70;98499.00;;;;5054024;28;20072;-66
2023/05/14 10:11:33;;;;;;;3.90;2.67;;;;;18.70;98500.00;;;;5055224;28;20514;-66
2023/05/14 10:14:07;;;;;;;3.15;2.83;;;;;18.90;98502.00;;;;5054552;28;20045;-65
2023/05/14 10:16:39;;;;;;;4.47;3.00;;;;;18.90;98503.00;;;;5037234;28;20049;-65
2023/05/14 10:19:10;;;;;;;3.00;2.75;;;;;19.00;98491.00;;;;5053254;28;20075;-65
2023/05/14 10:21:39;;;;;;;3.83;2.65;;;;;19.20;98501.00;;;;5055188;28;20071;-66
2023/05/14 10:24:07;;;;;;;3.25;2.95;;;;;19.20;98493.00;;;;5054699;28;20049;-65
2023/05/14 10:26:38;;;;;;;3.08;2.50;;;;;19.30;98492.00;;;;5054569;28;20041;-65
2023/05/14 10:29:09;;;;;;;2.70;2.50;;;;;19.30;98492.00;;;;5036636;28;20414;-65
2023/05/14 10:31:53;;;;;;;3.45;2.40;;;;;19.30;98495.00;;;;5053005;28;20033;-67
2023/05/14 10:34:42;;;;;;;;;;;;;19.40;98484.00;;;;5055623;28;20383;-65
2023/05/14 10:37:26;;;;;;;4.18;2.72;;;;;19.40;98489.00;;;;5054000;28;20377;-65
2023/05/14 10:39:57;;;;;;;3.83;2.78;;;;;19.40;98481.00;;;;5053000;28;20102;-65
2023/05/14 10:42:34;;;;;;;3.22;2.80;;;;;19.40;98483.00;;;;5054182;28;20041;-65
2023/05/14 10:45:14;;;;;;;4.07;2.55;;;;;19.30;98485.00;;;;5054384;28;20049;-66
2023/05/14 10:47:43;;;;;;;2.75;2.55;;;;;19.20;98490.00;;;;5053910;28;20103;-65
2023/05/14 10:50:11;;;;;;;3.75;2.78;;;;;19.20;98487.00;;;;5052125;28;20091;-65
2023/05/14 10:52:41;;;;;;;3.42;2.92;;;;;19.30;98481.00;;;;5052540;28;20068;-65
2023/05/14 10:55:11;;;;;;;3.20;2.90;;;;;19.50;98476.00;;;;5053912;28;20041;-65
2023/05/14 10:57:38;;;;;;;3.67;3.00;;;;;19.90;98474.00;;;;5053013;28;20409;-66
2023/05/14 11:00:09;;;;;;;2.42;2.22;;;;;20.20;98483.00;;;;5054308;28;20053;-66
2023/05/14 11:02:38;;;;;;;3.83;2.53;;;;;20.00;98481.00;;;;5052094;28;20084;-66
2023/05/14 11:05:07;;;;;;;3.25;2.88;;;;;19.90;98475.00;;;;5053448;28;20426;-66
2023/05/14 11:07:36;;;;;;;36.50;24.60;;;;;20.00;98466.00;;;;5052903;28;20041;-66
2023/05/14 11:10:06;;;;;;;3.33;2.80;;;;;20.10;98467.00;;;;5052114;28;20048;-66
2023/05/14 11:12:34;;;;;;;3.90;2.85;;;;;20.10;98470.00;;;;5053275;28;20041;-66
2023/05/14 11:15:02;;;;;;;3.30;2.83;;;;;20.00;98473.00;;;;5053302;28;20056;-66
2023/05/14 11:17:30;;;;;;;3.47;2.42;;;;;19.90;98469.00;;;;5053324;28;20049;-63
2023/05/14 11:19:57;;;;;;;3.08;2.63;;;;;19.70;98478.00;;;;5056493;28;20055;-66
2023/05/14 11:22:24;;;;;;;3.20;2.90;;;;;19.80;98482.00;;;;5065176;28;20048;-66
2023/05/14 11:24:51;;;;;;;3.13;2.83;;;;;19.60;98475.00;;;;5064326;28;20060;-67
2023/05/14 11:27:19;;;;;;;3.05;2.30;;;;;19.50;98475.00;;;;5054012;28;20041;-67
2023/05/14 11:29:47;;;;;;;3.35;2.70;;;;;19.60;98470.00;;;;5051436;28;20119;-68
2023/05/14 11:32:14;;;;;;;2.83;2.53;;;;;19.70;98478.00;;;;5052935;28;20048;-68
2023/05/14 11:34:45;;;;;;;2.63;2.42;;;;;19.80;98473.00;;;;5051813;28;20049;-67
2023/05/14 11:37:13;;;;;;;2.78;2.22;;;;;20.00;98460.00;;;;5052654;28;20051;-67
2023/05/14 11:39:46;;;;;;;3.22;2.30;;;;;20.20;98462.00;;;;5052682;28;20439;-67
2023/05/14 11:42:16;;;;;;;2.67;2.47;;;;;20.20;98466.00;;;;5051553;28;20055;-67
2023/05/14 11:44:43;;;;;;;3.03;2.63;;;;;20.20;98458.00;;;;5052826;28;20055;-66
2023/05/14 11:47:10;;;;;;;3.67;3.00;;;;;20.20;98459.00;;;;5051421;28;20529;-67
2023/05/14 11:49:37;;;;;;;2.67;2.47;;;;;20.30;98458.00;;;;5051322;28;20056;-67
2023/05/14 11:52:05;;;;;;;2.90;2.65;;;;;20.30;98450.00;;;;5052678;28;20048;-67
2023/05/14 11:54:33;;;;;;;3.20;2.78;;;;;20.40;98448.00;;;;5052382;28;20052;-66
2023/05/14 11:57:06;;;;;;;2.58;2.38;;;;;20.50;98445.00;;;;5052822;28;20055;-67
2023/05/14 11:59:32;;;;;;;2.83;2.53;;;;;20.60;98448.00;;;;5052386;28;20041;-64
2023/05/14 12:02:01;;;;;;;2.80;2.60;;;;;20.60;98434.00;;;;5034825;28;20498;-64
2023/05/14 12:04:28;;;;;;;2.80;2.50;;;;;20.90;98437.00;;;;5052668;28;20037;-63
2023/05/14 12:06:57;;;;;;;3.85;2.88;;;;;20.90;98453.00;;;;5051279;28;20556;-66
2023/05/14 12:09:24;;;;;;;4.03;3.63;;;;;20.70;98442.00;;;;5035178;28;20123;-65
2023/05/14 12:11:51;;;;;;;11.65;8.43;;;;;20.50;98448.00;;;;5052268;28;20047;-66
2023/05/14 12:14:19;;;;;;;4.35;2.40;;;;;20.30;98434.00;;;;5051198;28;20486;-66
2023/05/14 12:16:47;;;;;;;3.80;3.00;;;;;20.50;98428.00;;;;5052720;28;20041;-67
2023/05/14 12:19:15;;;;;;;2.85;2.60;;;;;20.80;98430.00;;;;5052226;28;20045;-67
2023/05/14 12:21:44;;;;;;;3.65;2.60;;;;;21.10;98421.00;;;;5056267;28;20052;-67